createdAt,value
2022-10-17T00:00:10.820Z,81.37
2022-10-17T00:03:00.512Z,79.32
2022-10-17T00:05:28.541Z,78.35
2022-10-17T00:07:58.718Z,79.06
2022-10-17T00:10:27.534Z,80.34
2022-10-17T00:12:56.947Z,78.85
2022-10-17T00:15:24.834Z,80.08
2022-10-17T00:17:55.132Z,81.12
2022-10-17T00:20:22.688Z,81.45
2022-10-17T00:22:50.913Z,83.00
2022-10-17T00:25:20.707Z,81.70
2022-10-17T00:27:49.376Z,81.51
2022-10-17T00:30:17.731Z,81.56
2022-10-17T00:32:50.466Z,80.76
2022-10-17T00:35:18.040Z,80.87
2022-10-17T00:37:48.427Z,81.98
2022-10-17T00:40:18.368Z,80.88
2022-10-17T00:42:53.127Z,81.82
2022-10-17T00:45:27.415Z,81.23
2022-10-17T00:48:16.591Z,80.39
2022-10-17T00:50:50.741Z,80.82
2022-10-17T00:53:20.765Z,79.25
2022-10-17T00:55:53.751Z,79.75
2022-10-17T00:58:23.964Z,80.04
2022-10-17T01:00:55.522Z,79.94
2022-10-17T01:03:23.749Z,79.29
2022-10-17T01:05:54.526Z,79.02
2022-10-17T01:08:27.558Z,78.43
2022-10-17T01:11:17.543Z,78.91
2022-10-17T01:14:24.677Z,78.70
2022-10-17T01:17:20.242Z,79.34
2022-10-17T01:20:05.485Z,79.25
2022-10-17T01:22:38.962Z,78.79
2022-10-17T01:25:34.822Z,78.76
2022-10-17T01:28:48.340Z,79.51
2022-10-17T01:31:37.684Z,79.57
2022-10-17T01:34:23.753Z,79.61
2022-10-17T01:40:17.764Z,79.36
2022-10-17T01:43:09.541Z,80.21
2022-10-17T01:45:50.382Z,79.35
2022-10-17T01:48:34.023Z,79.28
2022-10-17T01:51:37.676Z,79.42
2022-10-17T01:54:32.658Z,79.46
2022-10-17T01:57:05.872Z,79.38
2022-10-17T01:59:45.928Z,80.06
2022-10-17T02:05:09.384Z,79.42
2022-10-17T02:07:43.097Z,79.87
2022-10-17T02:10:26.367Z,79.42
2022-10-17T02:13:10.646Z,79.06
2022-10-17T02:15:51.698Z,79.29
2022-10-17T02:18:24.230Z,80.30
2022-10-17T02:21:18.200Z,79.66
2022-10-17T02:24:01.172Z,79.93
2022-10-17T02:27:12.129Z,79.45
2022-10-17T02:30:07.521Z,81.21
2022-10-17T02:33:15.729Z,79.75
2022-10-17T02:35:54.789Z,79.93
2022-10-17T02:38:29.389Z,80.39
2022-10-17T02:40:57.849Z,80.11
2022-10-17T02:43:26.039Z,80.93
2022-10-17T02:45:55.072Z,81.34
2022-10-17T02:48:43.915Z,80.67
2022-10-17T02:51:55.784Z,81.11
2022-10-17T02:54:37.300Z,81.10
2022-10-17T02:57:12.850Z,82.66
2022-10-17T02:59:45.199Z,82.52
2022-10-17T03:02:13.287Z,82.03
2022-10-17T03:04:45.567Z,82.81
2022-10-17T03:07:15.947Z,82.89
2022-10-17T03:09:45.590Z,83.28
2022-10-17T03:12:14.590Z,83.69
2022-10-17T03:14:42.170Z,83.63
2022-10-17T03:17:09.526Z,84.00
2022-10-17T03:19:56.192Z,83.41
2022-10-17T03:22:25.432Z,84.21
2022-10-17T03:24:54.283Z,83.63
2022-10-17T03:27:23.797Z,83.84
2022-10-17T03:29:54.576Z,83.62
2022-10-17T03:32:28.575Z,83.78
2022-10-17T03:34:58.850Z,83.93
2022-10-17T03:37:28.124Z,83.22
2022-10-17T03:39:58.440Z,82.78
2022-10-17T03:42:27.736Z,82.65
2022-10-17T03:44:57.654Z,82.23
2022-10-17T03:47:28.855Z,82.97
2022-10-17T03:50:00.995Z,82.78
2022-10-17T03:52:30.846Z,82.54
2022-10-17T03:55:02.123Z,82.98
2022-10-17T03:57:31.420Z,83.80
2022-10-17T04:00:00.784Z,83.03
2022-10-17T04:02:30.740Z,83.20
2022-10-17T04:05:08.831Z,82.51
2022-10-17T04:07:37.730Z,84.91
2022-10-17T04:10:11.753Z,85.26
2022-10-17T04:12:41.535Z,84.60
2022-10-17T04:15:16.800Z,85.48
2022-10-17T04:17:48.640Z,86.03
2022-10-17T04:20:26.626Z,87.26
2022-10-17T04:22:55.890Z,87.46
2022-10-17T04:25:29.667Z,86.91
2022-10-17T04:28:01.570Z,88.40
2022-10-17T04:30:31.935Z,87.28
2022-10-17T04:33:00.748Z,86.77
2022-10-17T04:35:31.195Z,87.87
2022-10-17T04:38:04.654Z,89.28
2022-10-17T04:40:34.872Z,88.67
2022-10-17T04:43:08.153Z,87.77
2022-10-17T04:45:38.541Z,90.74
2022-10-17T04:48:07.140Z,90.49
2022-10-17T04:50:36.559Z,89.47
2022-10-17T04:53:20.296Z,88.53
2022-10-17T04:55:54.818Z,88.30
2022-10-17T04:58:22.939Z,89.85
2022-10-17T05:00:53.024Z,91.14
2022-10-17T05:03:23.752Z,91.53
2022-10-17T05:05:53.644Z,90.19
2022-10-17T05:08:21.883Z,90.79
2022-10-17T05:10:52.126Z,92.40
2022-10-17T05:13:25.700Z,91.72
2022-10-17T05:16:04.543Z,91.65
2022-10-17T05:18:53.041Z,92.12
2022-10-17T05:24:20.340Z,89.34
2022-10-17T05:26:58.008Z,89.09
2022-10-17T05:29:26.841Z,88.34
2022-10-17T05:32:07.232Z,88.83
2022-10-17T05:34:40.142Z,87.13
2022-10-17T05:37:08.998Z,87.23
2022-10-17T05:39:36.928Z,79.51
2022-10-17T05:42:07.656Z,73.79
2022-10-17T05:44:36.757Z,70.57
2022-10-17T05:47:18.844Z,66.48
2022-10-17T05:49:52.458Z,63.80
2022-10-17T05:52:32.137Z,61.45
2022-10-17T05:55:12.088Z,59.40
2022-10-17T05:57:44.309Z,59.42
2022-10-17T06:00:20.203Z,59.25
2022-10-17T06:03:13.258Z,57.05
2022-10-17T06:06:15.505Z,54.28
2022-10-17T06:08:48.559Z,55.71
2022-10-17T06:11:27.059Z,55.40
2022-10-17T06:14:22.660Z,52.72
2022-10-17T06:16:57.744Z,49.67
2022-10-17T06:19:26.914Z,49.00
2022-10-17T06:21:58.168Z,48.54
2022-10-17T06:24:34.842Z,48.60
2022-10-17T06:27:11.889Z,46.33
2022-10-17T06:29:43.488Z,46.07
2022-10-17T06:32:39.315Z,47.05
2022-10-17T06:35:11.207Z,45.16
2022-10-17T06:37:49.954Z,44.22
2022-10-17T06:40:22.395Z,42.19
2022-10-17T06:42:56.456Z,42.73
2022-10-17T06:45:50.033Z,41.53
2022-10-17T06:49:04.326Z,40.84
2022-10-17T06:52:01.513Z,39.52
2022-10-17T06:54:45.596Z,38.98
2022-10-17T06:57:52.273Z,42.08
2022-10-17T07:00:46.738Z,42.37
2022-10-17T07:03:21.156Z,42.42
2022-10-17T07:05:54.611Z,42.29
2022-10-17T07:08:24.936Z,43.57
2022-10-17T07:10:56.097Z,43.01
2022-10-17T07:13:28.786Z,45.38
2022-10-17T07:16:02.503Z,45.19
2022-10-17T07:18:39.059Z,43.91
2022-10-17T07:21:12.562Z,47.39
2022-10-17T07:23:45.571Z,46.84
2022-10-17T07:26:17.403Z,47.87
2022-10-17T07:28:48.793Z,46.70
2022-10-17T07:31:36.457Z,47.02
2022-10-17T07:34:05.754Z,47.05
2022-10-17T07:37:01.794Z,47.26
2022-10-17T07:39:30.265Z,47.12
2022-10-17T07:42:00.038Z,48.04
2022-10-17T07:44:32.251Z,46.99
2022-10-17T07:47:03.852Z,47.78
2022-10-17T07:49:48.100Z,48.31
2022-10-17T07:52:17.220Z,51.02
2022-10-17T07:54:46.798Z,49.31
2022-10-17T07:57:15.747Z,49.61
2022-10-17T07:59:46.219Z,49.89
2022-10-17T08:02:28.160Z,49.86
2022-10-17T08:05:04.901Z,48.46
2022-10-17T08:07:35.618Z,49.20
2022-10-17T08:10:04.761Z,49.49
2022-10-17T08:12:34.537Z,49.96
2022-10-17T08:15:26.809Z,49.30
2022-10-17T08:18:06.096Z,49.17
2022-10-17T08:20:36.283Z,47.90
2022-10-17T08:23:03.916Z,47.79
2022-10-17T08:25:38.628Z,47.17
2022-10-17T08:28:09.328Z,46.77
2022-10-17T08:30:38.943Z,45.48
2022-10-17T08:33:34.057Z,44.13
2022-10-17T08:36:05.920Z,44.22
2022-10-17T08:38:36.360Z,46.70
2022-10-17T08:41:31.794Z,47.55
2022-10-17T08:44:47.170Z,47.98
2022-10-17T08:47:28.351Z,47.59
2022-10-17T08:50:03.596Z,46.63
2022-10-17T08:52:48.864Z,45.38
2022-10-17T08:55:45.547Z,44.61
2022-10-17T08:58:17.326Z,43.58
2022-10-17T09:01:02.424Z,44.45
2022-10-17T09:04:00.788Z,43.68
2022-10-17T09:06:40.534Z,43.91
2022-10-17T09:09:28.425Z,44.96
2022-10-17T09:12:14.907Z,44.79
2022-10-17T09:15:00.559Z,43.98
2022-10-17T09:17:55.886Z,45.50
2022-10-17T09:21:02.779Z,44.98
2022-10-17T09:24:09.674Z,44.19
2022-10-17T09:26:47.078Z,42.27
2022-10-17T09:29:43.965Z,42.65
2022-10-17T09:32:23.678Z,42.73
2022-10-17T09:34:54.303Z,43.16
2022-10-17T09:37:31.786Z,43.12
2022-10-17T09:40:01.283Z,43.13
2022-10-17T09:42:38.044Z,42.34
2022-10-17T09:45:27.722Z,40.96
2022-10-17T09:48:10.718Z,41.63
2022-10-17T09:50:40.316Z,42.19
2022-10-17T09:53:41.570Z,43.04
2022-10-17T09:56:21.211Z,43.48
2022-10-17T09:58:58.632Z,43.33
2022-10-17T10:01:32.161Z,43.07
2022-10-17T10:04:15.545Z,42.55
2022-10-17T10:07:06.396Z,42.44
2022-10-17T10:09:39.479Z,41.14
2022-10-17T10:12:23.441Z,40.39
2022-10-17T10:14:54.739Z,40.90
2022-10-17T10:17:44.142Z,41.24
2022-10-17T10:20:46.948Z,42.69
2022-10-17T10:23:21.232Z,42.87
2022-10-17T10:25:56.421Z,41.36
2022-10-17T10:28:29.039Z,40.27
2022-10-17T10:31:00.537Z,40.68
2022-10-17T10:33:31.859Z,40.99
2022-10-17T10:36:07.960Z,41.32
2022-10-17T10:38:39.322Z,41.62
2022-10-17T10:41:12.730Z,43.04
2022-10-17T10:43:59.066Z,42.67
2022-10-17T10:46:28.656Z,42.40
2022-10-17T10:48:59.798Z,43.62
2022-10-17T10:51:53.702Z,42.87
2022-10-17T10:54:47.994Z,42.79
2022-10-17T10:57:21.649Z,41.64
2022-10-17T11:00:21.154Z,39.79
2022-10-17T11:03:14.038Z,40.32
2022-10-17T11:05:52.335Z,40.16
2022-10-17T11:08:36.851Z,41.41
2022-10-17T11:11:18.155Z,40.61
2022-10-17T11:13:56.243Z,39.72
2022-10-17T11:16:40.365Z,38.51
2022-10-17T11:19:44.193Z,39.37
2022-10-17T11:22:26.645Z,39.76
2022-10-17T11:25:08.128Z,40.10
2022-10-17T11:27:35.702Z,38.27
2022-10-17T11:30:06.524Z,37.84
2022-10-17T11:32:59.723Z,38.75
2022-10-17T11:35:34.392Z,39.39
2022-10-17T11:38:04.708Z,38.15
2022-10-17T11:40:38.629Z,38.87
2022-10-17T11:43:15.077Z,38.97
2022-10-17T11:45:50.700Z,37.68
2022-10-17T11:48:43.696Z,39.02
2022-10-17T11:54:15.048Z,37.82
2022-10-17T11:57:12.711Z,37.66
2022-10-17T12:00:06.256Z,37.88
2022-10-17T12:02:52.236Z,37.71
2022-10-17T12:05:47.503Z,36.73
2022-10-17T12:08:46.001Z,35.90
2022-10-17T12:11:39.763Z,36.85
2022-10-17T12:14:46.608Z,36.76
2022-10-17T12:17:41.939Z,36.06
2022-10-17T12:20:28.592Z,35.88
2022-10-17T12:23:11.437Z,35.81
2022-10-17T12:26:05.439Z,35.10
2022-10-17T12:28:48.027Z,35.91
2022-10-17T12:31:33.630Z,35.92
2022-10-17T12:34:05.224Z,36.27
2022-10-17T12:36:39.858Z,35.80
2022-10-17T12:39:13.730Z,34.98
2022-10-17T12:41:46.978Z,35.03
2022-10-17T12:44:18.737Z,35.43
2022-10-17T12:47:19.679Z,34.06
2022-10-17T12:49:56.469Z,33.86
2022-10-17T12:52:39.466Z,33.79
2022-10-17T12:55:34.282Z,33.69
2022-10-17T12:58:15.004Z,32.88
2022-10-17T13:01:23.064Z,33.43
2022-10-17T13:04:09.552Z,33.59
2022-10-17T13:06:44.187Z,33.77
2022-10-17T13:09:34.537Z,33.59
2022-10-17T13:12:12.009Z,34.85
2022-10-17T13:14:43.197Z,35.06
2022-10-17T13:17:30.826Z,34.60
2022-10-17T13:19:59.892Z,34.44
2022-10-17T13:22:31.027Z,34.04
2022-10-17T13:25:14.011Z,32.65
2022-10-17T13:27:42.150Z,33.50
2022-10-17T13:30:34.255Z,33.67
2022-10-17T13:33:03.328Z,33.94
2022-10-17T13:38:34.138Z,33.56
2022-10-17T13:41:33.755Z,33.68
2022-10-17T13:43:54.516Z,33.79
2022-10-17T13:46:39.893Z,33.81
2022-10-17T13:49:16.367Z,32.89
2022-10-17T13:51:49.637Z,33.21
2022-10-17T13:54:33.837Z,33.19
2022-10-17T13:57:04.727Z,32.47
2022-10-17T13:59:41.175Z,33.07
2022-10-17T14:02:23.843Z,33.14
2022-10-17T14:05:17.169Z,32.32
2022-10-17T14:08:12.792Z,32.42
2022-10-17T14:11:07.862Z,32.54
2022-10-17T14:13:36.060Z,32.66
2022-10-17T14:16:05.787Z,33.45
2022-10-17T14:18:39.272Z,32.99
2022-10-17T14:21:42.992Z,33.81
2022-10-17T14:24:16.877Z,34.04
2022-10-17T14:26:54.246Z,34.31
2022-10-17T14:29:35.111Z,34.91
2022-10-17T14:32:08.792Z,34.83
2022-10-17T14:34:44.088Z,35.23
2022-10-17T14:37:21.171Z,35.69
2022-10-17T14:39:55.700Z,35.93
2022-10-17T14:42:23.980Z,36.48
2022-10-17T14:44:54.814Z,36.28
2022-10-17T14:47:43.106Z,36.24
2022-10-17T14:50:11.392Z,36.65
2022-10-17T14:52:40.001Z,37.09
2022-10-17T14:55:29.290Z,37.12
2022-10-17T14:57:56.900Z,37.52
2022-10-17T15:00:25.831Z,37.63
2022-10-17T15:02:56.613Z,37.53
2022-10-17T15:07:57.837Z,38.44
2022-10-17T15:10:51.301Z,39.10
2022-10-17T15:13:29.036Z,39.27
2022-10-17T15:15:57.877Z,39.61
2022-10-17T15:18:26.774Z,40.41
2022-10-17T15:21:04.964Z,41.91
2022-10-17T15:23:36.394Z,45.76
2022-10-17T15:26:33.704Z,43.67
2022-10-17T15:29:02.840Z,44.91
2022-10-17T15:31:59.097Z,46.68
2022-10-17T15:34:31.916Z,46.19
2022-10-17T15:37:01.475Z,46.83
2022-10-17T15:39:33.477Z,47.50
2022-10-17T15:42:03.483Z,48.51
2022-10-17T15:44:34.011Z,50.51
2022-10-17T15:47:03.883Z,50.35
2022-10-17T15:49:31.810Z,50.34
2022-10-17T15:52:02.655Z,50.17
2022-10-17T15:54:35.363Z,50.42
2022-10-17T15:57:27.380Z,51.18
2022-10-17T16:00:01.581Z,51.69
2022-10-17T16:02:31.283Z,52.03
2022-10-17T16:05:02.813Z,52.23
2022-10-17T16:07:32.717Z,52.38
2022-10-17T16:10:00.179Z,52.83
2022-10-17T16:12:41.640Z,53.49
2022-10-17T16:15:23.368Z,53.29
2022-10-17T16:17:55.527Z,53.50
2022-10-17T16:20:25.238Z,54.23
2022-10-17T16:22:59.934Z,54.87
2022-10-17T16:25:29.880Z,54.61
2022-10-17T16:27:59.048Z,55.08
2022-10-17T16:30:31.751Z,55.49
2022-10-17T16:33:01.976Z,55.28
2022-10-17T16:35:36.581Z,55.83
2022-10-17T16:38:08.707Z,55.94
2022-10-17T16:40:39.396Z,55.71
2022-10-17T16:43:11.510Z,55.76
2022-10-17T16:45:40.026Z,56.41
2022-10-17T16:48:09.969Z,56.46
2022-10-17T16:50:41.309Z,56.95
2022-10-17T16:53:10.675Z,57.27
2022-10-17T16:55:58.635Z,57.30
2022-10-17T16:58:27.586Z,57.34
2022-10-17T17:00:57.596Z,57.40
2022-10-17T17:03:28.064Z,59.41
2022-10-17T17:05:56.664Z,58.28
2022-10-17T17:08:26.511Z,57.60
2022-10-17T17:10:56.719Z,58.38
2022-10-17T17:13:28.405Z,58.24
2022-10-17T17:16:14.573Z,58.91
2022-10-17T17:18:54.495Z,59.29
2022-10-17T17:21:27.943Z,59.33
2022-10-17T17:23:59.400Z,59.35
2022-10-17T17:26:41.075Z,59.56
2022-10-17T17:29:10.589Z,60.12
2022-10-17T17:31:42.136Z,60.09
2022-10-17T17:34:11.096Z,60.46
2022-10-17T17:36:43.614Z,60.81
2022-10-17T17:39:14.760Z,60.95
2022-10-17T17:41:45.693Z,61.03
2022-10-17T17:44:16.980Z,61.52
2022-10-17T17:46:50.752Z,62.39
2022-10-17T17:49:20.124Z,62.64
2022-10-17T17:51:47.615Z,62.67
2022-10-17T17:54:19.061Z,63.93
2022-10-17T17:56:50.991Z,63.51
2022-10-17T17:59:26.363Z,63.23
2022-10-17T18:01:55.624Z,63.28
2022-10-17T18:04:29.999Z,62.80
2022-10-17T18:06:59.063Z,62.88
2022-10-17T18:09:29.125Z,62.75
2022-10-17T18:11:57.844Z,63.03
2022-10-17T18:14:25.919Z,63.15
2022-10-17T18:16:55.861Z,62.99
2022-10-17T18:19:24.934Z,63.66
2022-10-17T18:21:53.874Z,63.18
2022-10-17T18:24:22.918Z,63.88
2022-10-17T18:26:56.447Z,65.15
2022-10-17T18:29:24.267Z,65.65
2022-10-17T18:31:51.674Z,66.05
2022-10-17T18:34:20.796Z,66.01
2022-10-17T18:36:57.444Z,66.65
2022-10-17T18:39:26.672Z,66.47
2022-10-17T18:41:55.795Z,66.39
2022-10-17T18:44:27.242Z,65.29
2022-10-17T18:46:55.202Z,66.35
2022-10-17T18:49:29.341Z,66.11
2022-10-17T18:52:00.977Z,67.05
2022-10-17T18:54:32.245Z,66.68
2022-10-17T18:57:01.578Z,65.51
2022-10-17T18:59:30.797Z,65.99
2022-10-17T19:02:00.198Z,66.59
2022-10-17T19:04:28.867Z,66.55
2022-10-17T19:06:59.393Z,66.96
2022-10-17T19:09:27.190Z,66.72
2022-10-17T19:11:54.793Z,66.81
2022-10-17T19:14:23.189Z,67.30
2022-10-17T19:16:53.465Z,67.08
2022-10-17T19:19:25.963Z,67.16
2022-10-17T19:21:57.735Z,66.95
2022-10-17T19:24:57.108Z,67.51
2022-10-17T19:27:26.493Z,68.26
2022-10-17T19:29:56.646Z,68.43
2022-10-17T19:32:25.678Z,68.86
2022-10-17T19:34:56.559Z,69.78
2022-10-17T19:37:24.746Z,70.34
2022-10-17T19:39:53.748Z,70.29
2022-10-17T19:42:21.863Z,70.52
2022-10-17T19:44:53.464Z,71.04
2022-10-17T19:47:21.917Z,70.52
2022-10-17T19:49:54.645Z,70.36
2022-10-17T19:52:22.114Z,71.24
2022-10-17T19:54:55.463Z,71.78
2022-10-17T19:57:26.746Z,71.85
2022-10-17T20:00:21.679Z,72.16
2022-10-17T20:02:50.569Z,72.87
2022-10-17T20:05:44.023Z,73.14
2022-10-17T20:08:17.074Z,74.21
2022-10-17T20:11:20.551Z,73.68
2022-10-17T20:13:55.763Z,74.64
2022-10-17T20:16:26.084Z,75.32
2022-10-17T20:18:59.164Z,75.50
2022-10-17T20:21:33.115Z,76.82
2022-10-17T20:24:04.646Z,77.18
2022-10-17T20:26:38.267Z,77.79
2022-10-17T20:29:17.528Z,78.08
2022-10-17T20:31:46.426Z,77.76
2022-10-17T20:34:17.543Z,78.86
2022-10-17T20:36:48.889Z,79.38
2022-10-17T20:39:20.061Z,79.82
2022-10-17T20:41:49.083Z,80.60
2022-10-17T20:44:17.148Z,80.96
2022-10-17T20:47:00.656Z,81.98
2022-10-17T20:49:34.634Z,81.11
2022-10-17T20:52:03.553Z,79.71
2022-10-17T20:54:30.791Z,78.67
2022-10-17T20:57:02.573Z,79.49
2022-10-17T20:59:35.484Z,80.32
2022-10-17T21:02:05.866Z,80.13
2022-10-17T21:04:45.836Z,80.27
2022-10-17T21:07:14.405Z,78.76
2022-10-17T21:09:43.374Z,77.90
2022-10-17T21:12:18.114Z,76.93
2022-10-17T21:14:53.589Z,76.15
2022-10-17T21:17:24.355Z,76.13
2022-10-17T21:19:51.830Z,76.27
2022-10-17T21:22:19.503Z,74.84
2022-10-17T21:24:47.056Z,74.37
2022-10-17T21:27:18.592Z,75.14
2022-10-17T21:29:48.064Z,74.23
2022-10-17T21:32:31.982Z,73.50
2022-10-17T21:35:07.932Z,73.68
2022-10-17T21:37:37.356Z,72.97
2022-10-17T21:40:09.193Z,72.65
2022-10-17T21:42:41.164Z,72.58
2022-10-17T21:45:15.934Z,73.26
2022-10-17T21:48:12.937Z,72.80
2022-10-17T21:50:42.225Z,72.38
2022-10-17T21:53:13.917Z,74.23
2022-10-17T21:55:41.825Z,72.38
2022-10-17T21:58:09.400Z,74.46
2022-10-17T22:00:36.978Z,74.43
2022-10-17T22:03:07.245Z,74.53
2022-10-17T22:05:40.505Z,73.83
2022-10-17T22:08:09.906Z,73.15
2022-10-17T22:10:40.619Z,72.85
2022-10-17T22:13:27.312Z,73.11
2022-10-17T22:16:03.795Z,74.59
2022-10-17T22:18:32.592Z,75.63
2022-10-17T22:21:08.864Z,76.23
2022-10-17T22:23:38.632Z,77.29
2022-10-17T22:26:07.294Z,76.97
2022-10-17T22:28:40.178Z,77.83
2022-10-17T22:31:09.836Z,76.63
2022-10-17T22:33:41.573Z,76.10
2022-10-17T22:36:27.060Z,76.36
2022-10-17T22:38:54.720Z,77.11
2022-10-17T22:41:23.151Z,76.60
2022-10-17T22:43:53.070Z,77.56
2022-10-17T22:46:21.443Z,76.45
2022-10-17T22:48:51.270Z,77.74
2022-10-17T22:53:53.774Z,77.69
2022-10-17T22:56:26.013Z,78.17
2022-10-17T22:58:56.486Z,84.36
2022-10-17T23:01:25.676Z,78.92
2022-10-17T23:03:55.663Z,79.02
2022-10-17T23:06:24.481Z,80.46
2022-10-17T23:08:53.002Z,80.44
2022-10-17T23:11:23.017Z,81.10
2022-10-17T23:13:53.343Z,81.18
2022-10-17T23:16:23.493Z,81.87
2022-10-17T23:18:51.872Z,80.49
2022-10-17T23:21:19.749Z,81.45
2022-10-17T23:23:47.911Z,82.61
2022-10-17T23:26:15.748Z,82.35
2022-10-17T23:28:44.919Z,82.56
2022-10-17T23:31:21.764Z,81.70
2022-10-17T23:33:51.883Z,83.47
2022-10-17T23:36:20.991Z,82.55
2022-10-17T23:38:52.661Z,81.52
2022-10-17T23:41:22.643Z,82.88
2022-10-17T23:43:51.334Z,84.08
2022-10-17T23:46:19.540Z,82.92
2022-10-17T23:48:47.823Z,81.71
2022-10-17T23:51:16.274Z,81.29
2022-10-17T23:53:45.000Z,81.29
2022-10-17T23:56:12.847Z,80.47
2022-10-17T23:58:40.829Z,80.43
